createdAt,value
2022-09-10T00:01:21.240Z,101044.56
2022-09-10T00:03:51.246Z,101045.09
2022-09-10T00:06:18.934Z,101046.38
2022-09-10T00:08:46.584Z,101038.78
2022-09-10T00:11:14.940Z,101036.09
2022-09-10T00:13:42.239Z,101035.59
2022-09-10T00:16:12.039Z,101046.91
2022-09-10T00:18:39.884Z,101035.78
2022-09-10T00:21:10.342Z,101027.69
2022-09-10T00:23:37.462Z,101033.59
2022-09-10T00:26:23.210Z,101034.13
2022-09-10T00:28:51.064Z,101032.72
2022-09-10T00:31:18.928Z,101034.00
2022-09-10T00:33:45.451Z,101037.53
2022-09-10T00:36:26.655Z,101033.22
2022-09-10T00:38:54.834Z,101036.22
2022-09-10T00:41:23.340Z,101040.53
2022-09-10T00:43:57.256Z,101033.22
2022-09-10T00:46:38.875Z,101035.63
2022-09-10T00:49:14.476Z,101039.41
2022-09-10T00:51:41.608Z,101039.41
2022-09-10T00:54:08.265Z,101034.31
2022-09-10T00:56:34.914Z,101037.03
2022-09-10T00:59:04.137Z,101038.94
2022-09-10T01:01:33.422Z,101041.13
2022-09-10T01:04:01.321Z,101042.50
2022-09-10T01:06:27.991Z,101042.78
2022-09-10T01:08:54.352Z,101039.00
2022-09-10T01:11:47.672Z,101038.50
2022-09-10T01:14:27.824Z,101036.09
2022-09-10T01:17:38.667Z,101041.28
2022-09-10T01:20:56.538Z,101036.47
2022-09-10T01:23:45.002Z,101032.44
2022-09-10T01:26:30.036Z,101030.03
2022-09-10T01:29:05.424Z,101025.75
2022-09-10T01:31:54.030Z,101028.75
2022-09-10T01:34:27.617Z,101036.03
2022-09-10T01:37:00.088Z,101028.22
2022-09-10T01:39:27.323Z,101032.31
2022-09-10T01:41:54.439Z,101048.22
2022-09-10T01:44:47.425Z,101043.59
2022-09-10T01:47:51.316Z,101049.31
2022-09-10T01:50:34.244Z,101042.31
2022-09-10T01:53:23.221Z,101049.31
2022-09-10T01:55:55.201Z,101043.41
2022-09-10T01:58:36.579Z,101044.78
2022-09-10T02:01:14.841Z,101042.09
2022-09-10T02:03:44.532Z,101035.09
2022-09-10T02:06:14.958Z,101031.59
2022-09-10T02:08:45.385Z,101033.19
2022-09-10T02:11:14.196Z,101030.78
2022-09-10T02:13:44.173Z,101030.47
2022-09-10T02:16:18.367Z,101028.91
2022-09-10T02:18:44.860Z,101028.59
2022-09-10T02:21:11.973Z,101027.19
2022-09-10T02:23:44.232Z,101028.03
2022-09-10T02:26:12.066Z,101031.22
2022-09-10T02:28:39.652Z,101032.03
2022-09-10T02:31:06.273Z,101030.94
2022-09-10T02:33:32.673Z,101024.44
2022-09-10T02:35:59.135Z,101025.22
2022-09-10T02:38:25.444Z,101030.63
2022-09-10T02:40:51.767Z,101030.88
2022-09-10T02:43:18.091Z,101036.75
2022-09-10T02:45:44.702Z,101024.84
2022-09-10T02:48:11.132Z,101026.19
2022-09-10T02:50:37.680Z,101030.50
2022-09-10T02:53:04.062Z,101026.66
2022-09-10T02:55:31.427Z,101028.56
2022-09-10T02:57:58.339Z,101023.47
2022-09-10T03:00:24.906Z,101027.78
2022-09-10T03:02:51.276Z,101027.47
2022-09-10T03:05:17.705Z,101024.47
2022-09-10T03:07:44.785Z,101033.41
2022-09-10T03:10:11.117Z,101031.22
2022-09-10T03:12:39.139Z,101025.81
2022-09-10T03:15:06.096Z,101026.59
2022-09-10T03:17:32.802Z,101022.81
2022-09-10T03:19:59.164Z,101018.19
2022-09-10T03:22:25.559Z,101017.59
2022-09-10T03:24:51.928Z,101012.50
2022-09-10T03:27:18.305Z,101021.91
2022-09-10T03:29:45.254Z,101018.13
2022-09-10T03:32:11.581Z,101018.94
2022-09-10T03:34:39.120Z,101017.81
2022-09-10T03:37:05.834Z,101015.13
2022-09-10T03:39:32.259Z,101012.41
2022-09-10T03:41:58.645Z,101009.72
2022-09-10T03:44:25.281Z,101007.53
2022-09-10T03:46:51.943Z,101009.94
2022-09-10T03:49:18.362Z,101005.34
2022-09-10T03:51:44.694Z,101003.72
2022-09-10T03:54:11.503Z,101011.84
2022-09-10T03:56:37.978Z,101006.44
2022-09-10T03:59:04.396Z,101004.53
2022-09-10T04:01:30.861Z,101003.44
2022-09-10T04:03:57.407Z,101001.53
2022-09-10T04:06:24.040Z,101016.94
2022-09-10T04:08:52.671Z,101009.34
2022-09-10T04:11:20.472Z,101008.53
2022-09-10T04:13:48.441Z,101010.16
2022-09-10T04:16:16.335Z,101004.44
2022-09-10T04:18:42.825Z,101005.25
2022-09-10T04:21:09.245Z,101005.75
2022-09-10T04:23:35.644Z,101003.53
2022-09-10T04:26:11.348Z,101000.38
2022-09-10T04:28:38.288Z,101001.47
2022-09-10T04:31:04.662Z,100995.81
2022-09-10T04:33:33.079Z,100998.91
2022-09-10T04:36:02.299Z,100998.72
2022-09-10T04:38:30.402Z,101006.31
2022-09-10T04:40:57.895Z,101004.41
2022-09-10T04:43:28.273Z,101001.72
2022-09-10T04:45:55.745Z,101000.63
2022-09-10T04:48:22.893Z,101008.72
2022-09-10T04:51:14.865Z,101015.72
2022-09-10T04:53:40.419Z,101013.81
2022-09-10T04:56:07.994Z,101014.63
2022-09-10T04:58:38.693Z,101009.22
2022-09-10T05:01:05.843Z,101013.53
2022-09-10T05:03:32.339Z,101014.31
2022-09-10T05:05:58.705Z,101013.75
2022-09-10T05:08:25.076Z,101018.31
2022-09-10T05:10:51.479Z,101016.13
2022-09-10T05:13:18.180Z,101016.94
2022-09-10T05:15:45.998Z,101016.13
2022-09-10T05:18:12.340Z,101017.44
2022-09-10T05:20:38.701Z,101022.03
2022-09-10T05:23:05.113Z,101019.53
2022-09-10T05:25:31.575Z,101021.47
2022-09-10T05:27:57.952Z,101012.84
2022-09-10T05:30:24.643Z,101016.06
2022-09-10T05:32:53.173Z,101013.34
2022-09-10T05:35:19.847Z,101017.34
2022-09-10T05:37:46.223Z,101016.78
2022-09-10T05:40:14.484Z,101015.94
2022-09-10T05:42:40.848Z,101023.47
2022-09-10T05:45:07.794Z,101020.47
2022-09-10T05:47:34.428Z,101028.78
2022-09-10T05:50:00.785Z,101021.19
2022-09-10T05:52:27.116Z,101029.78
2022-09-10T05:54:56.424Z,101030.81
2022-09-10T05:57:22.765Z,101033.50
2022-09-10T05:59:49.081Z,101040.50
2022-09-10T06:02:23.755Z,101032.09
2022-09-10T06:04:50.528Z,101030.41
2022-09-10T06:07:16.908Z,101033.94
2022-09-10T06:09:43.599Z,101035.44
2022-09-10T06:12:09.983Z,101035.44
2022-09-10T06:14:36.302Z,101026.44
2022-09-10T06:17:02.749Z,101042.44
2022-09-10T06:19:29.598Z,101047.84
2022-09-10T06:21:56.089Z,101049.44
2022-09-10T06:24:24.360Z,101046.22
2022-09-10T06:26:50.807Z,101052.34
2022-09-10T06:29:19.152Z,101046.34
2022-09-10T06:31:47.000Z,101045.25
2022-09-10T06:34:13.397Z,101045.53
2022-09-10T06:36:39.804Z,101051.97
2022-09-10T06:39:07.149Z,101055.09
2022-09-10T06:41:35.065Z,101054.25
2022-09-10T06:44:01.577Z,101052.25
2022-09-10T06:49:15.241Z,101065.94
2022-09-10T06:51:42.307Z,101063.41
2022-09-10T06:54:08.683Z,101071.94
2022-09-10T06:56:35.028Z,101072.66
2022-09-10T06:59:02.699Z,101077.47
2022-09-10T07:01:29.374Z,101082.47
2022-09-10T07:03:57.591Z,101082.25
2022-09-10T07:06:25.767Z,101085.34
2022-09-10T07:08:56.950Z,101076.91
2022-09-10T07:11:24.806Z,101086.41
2022-09-10T07:13:53.150Z,101087.00
2022-09-10T07:16:20.957Z,101088.53
2022-09-10T07:18:51.899Z,101080.22
2022-09-10T07:21:19.188Z,101093.66
2022-09-10T07:23:48.387Z,101095.06
2022-09-10T07:26:17.277Z,101097.25
2022-09-10T07:28:43.981Z,101097.25
2022-09-10T07:31:19.582Z,101101.47
2022-09-10T07:33:47.203Z,101095.94
2022-09-10T07:36:14.305Z,101095.56
2022-09-10T07:38:41.760Z,101108.69
2022-09-10T07:41:11.195Z,101100.78
2022-09-10T07:43:41.863Z,101106.25
2022-09-10T07:46:12.734Z,101108.06
2022-09-10T07:48:41.392Z,101108.72
2022-09-10T07:51:09.045Z,101110.63
2022-09-10T07:53:35.842Z,101109.91
2022-09-10T07:56:07.465Z,101111.78
2022-09-10T07:58:35.740Z,101119.50
2022-09-10T08:01:02.364Z,101119.53
2022-09-10T08:03:29.736Z,101123.25
2022-09-10T08:06:00.987Z,101125.97
2022-09-10T08:08:31.827Z,101126.91
2022-09-10T08:11:12.206Z,101122.66
2022-09-10T08:13:41.257Z,101127.59
2022-09-10T08:16:09.885Z,101127.13
2022-09-10T08:18:37.154Z,101137.53
2022-09-10T08:21:05.037Z,101140.75
2022-09-10T08:23:31.736Z,101140.50
2022-09-10T08:25:58.262Z,101144.34
2022-09-10T08:28:27.220Z,101148.16
2022-09-10T08:31:00.454Z,101152.16
2022-09-10T08:33:27.315Z,101151.34
2022-09-10T08:36:00.645Z,101160.19
2022-09-10T08:38:30.883Z,101159.34
2022-09-10T08:40:59.980Z,101158.91
2022-09-10T08:43:42.739Z,101163.75
2022-09-10T08:46:22.339Z,101171.44
2022-09-10T08:48:58.726Z,101172.59
2022-09-10T08:51:30.164Z,101186.16
2022-09-10T08:54:03.069Z,101182.53
2022-09-10T08:56:31.173Z,101183.00
2022-09-10T08:59:04.332Z,101190.84
2022-09-10T09:01:40.461Z,101181.41
2022-09-10T09:04:18.856Z,101192.53
2022-09-10T09:06:51.352Z,101198.28
2022-09-10T09:09:17.987Z,101204.22
2022-09-10T09:12:10.153Z,101202.94
2022-09-10T09:15:04.731Z,101195.78
2022-09-10T09:17:52.976Z,101205.38
2022-09-10T09:20:50.208Z,101203.69
2022-09-10T09:23:27.744Z,101200.56
2022-09-10T09:26:11.664Z,101200.84
2022-09-10T09:29:02.621Z,101209.00
2022-09-10T09:31:32.553Z,101205.19
2022-09-10T09:34:09.857Z,101209.19
2022-09-10T09:36:47.993Z,101210.28
2022-09-10T09:39:25.766Z,101209.44
2022-09-10T09:42:12.985Z,101204.88
2022-09-10T09:45:06.898Z,101212.78
2022-09-10T09:47:33.739Z,101209.88
2022-09-10T09:50:00.370Z,101212.63
2022-09-10T09:52:31.146Z,101218.69
2022-09-10T09:55:14.905Z,101217.44
2022-09-10T09:57:42.633Z,101222.59
2022-09-10T10:00:35.980Z,101215.00
2022-09-10T10:03:26.464Z,101218.19
2022-09-10T10:06:03.281Z,101223.13
2022-09-10T10:08:37.646Z,101216.91
2022-09-10T10:11:04.771Z,101222.56
2022-09-10T10:13:42.523Z,101231.09
2022-09-10T10:16:45.069Z,101224.66
2022-09-10T10:19:37.759Z,101225.25
2022-09-10T10:22:19.257Z,101225.75
2022-09-10T10:24:47.940Z,101218.09
2022-09-10T10:27:16.762Z,101223.13
2022-09-10T10:29:55.654Z,101226.16
2022-09-10T10:32:32.161Z,101233.69
2022-09-10T10:35:27.419Z,101235.59
2022-09-10T10:38:00.913Z,101245.44
2022-09-10T10:40:34.169Z,101246.41
2022-09-10T10:43:39.183Z,101249.69
2022-09-10T10:46:17.137Z,101244.78
2022-09-10T10:49:05.234Z,101255.50
2022-09-10T10:51:34.548Z,101250.69
2022-09-10T10:54:28.378Z,101245.91
2022-09-10T10:57:11.765Z,101258.06
2022-09-10T11:00:00.996Z,101256.50
2022-09-10T11:03:09.959Z,101262.97
2022-09-10T11:05:48.034Z,101268.25
2022-09-10T11:08:21.412Z,101264.66
2022-09-10T11:10:56.183Z,101265.75
2022-09-10T11:13:35.896Z,101258.41
2022-09-10T11:16:25.993Z,101268.81
2022-09-10T11:19:08.927Z,101271.81
2022-09-10T11:21:40.187Z,101278.66
2022-09-10T11:24:18.682Z,101283.56
2022-09-10T11:26:51.114Z,101288.56
2022-09-10T11:29:35.881Z,101281.88
2022-09-10T11:32:48.534Z,101290.22
2022-09-10T11:35:34.684Z,101289.19
2022-09-10T11:38:04.041Z,101293.97
2022-09-10T11:40:46.245Z,101296.44
2022-09-10T11:43:19.606Z,101293.66
2022-09-10T11:45:57.485Z,101292.00
2022-09-10T11:48:37.094Z,101294.75
2022-09-10T11:51:12.415Z,101296.59
2022-09-10T11:53:38.831Z,101299.22
2022-09-10T11:56:05.398Z,101293.25
2022-09-10T11:58:37.998Z,101289.66
2022-09-10T12:01:19.761Z,101294.72
2022-09-10T12:03:46.140Z,101290.34
2022-09-10T12:06:22.115Z,101297.78
2022-09-10T12:09:03.701Z,101298.59
2022-09-10T12:12:03.272Z,101313.63
2022-09-10T12:14:30.325Z,101312.72
2022-09-10T12:17:02.465Z,101308.63
2022-09-10T12:19:37.316Z,101308.38
2022-09-10T12:22:18.812Z,101307.72
2022-09-10T12:24:54.541Z,101313.53
2022-09-10T12:27:21.515Z,101310.50
2022-09-10T12:29:49.078Z,101306.84
2022-09-10T12:32:21.350Z,101310.50
2022-09-10T12:35:08.282Z,101310.28
2022-09-10T12:37:34.629Z,101317.81
2022-09-10T12:40:39.675Z,101327.16
2022-09-10T12:43:41.442Z,101328.13
2022-09-10T12:46:11.929Z,101335.50
2022-09-10T12:48:44.899Z,101326.47
2022-09-10T12:51:20.482Z,101328.06
2022-09-10T12:54:24.217Z,101341.78
2022-09-10T12:57:16.262Z,101344.94
2022-09-10T12:59:54.569Z,101348.81
2022-09-10T13:02:33.889Z,101351.91
2022-09-10T13:05:17.182Z,101354.06
2022-09-10T13:07:45.144Z,101355.75
2022-09-10T13:10:22.047Z,101356.66
2022-09-10T13:12:55.426Z,101352.69
2022-09-10T13:15:29.870Z,101351.59
2022-09-10T13:17:56.395Z,101355.31
2022-09-10T13:20:22.678Z,101365.81
2022-09-10T13:23:01.438Z,101351.78
2022-09-10T13:25:34.830Z,101369.22
2022-09-10T13:28:01.830Z,101370.69
2022-09-10T13:30:29.701Z,101375.59
2022-09-10T13:33:00.945Z,101369.66
2022-09-10T13:35:42.185Z,101358.59
2022-09-10T13:38:24.136Z,101364.38
2022-09-10T13:41:23.856Z,101372.47
2022-09-10T13:44:01.183Z,101380.06
2022-09-10T13:46:37.775Z,101384.06
2022-09-10T13:49:19.368Z,101391.09
2022-09-10T13:51:53.067Z,101385.06
2022-09-10T13:54:32.933Z,101382.31
2022-09-10T13:57:20.956Z,101393.81
2022-09-10T13:59:50.490Z,101394.38
2022-09-10T14:02:19.703Z,101395.88
2022-09-10T14:04:46.912Z,101397.09
2022-09-10T14:07:28.428Z,101388.25
2022-09-10T14:10:00.658Z,101390.69
2022-09-10T14:12:29.243Z,101391.94
2022-09-10T14:15:00.279Z,101399.25
2022-09-10T14:17:34.260Z,101395.53
2022-09-10T14:20:02.883Z,101415.59
2022-09-10T14:22:31.732Z,101410.44
2022-09-10T14:25:00.666Z,101409.56
2022-09-10T14:27:34.905Z,101404.84
2022-09-10T14:30:23.028Z,101414.41
2022-09-10T14:32:49.847Z,101415.41
2022-09-10T14:35:39.976Z,101416.84
2022-09-10T14:38:34.090Z,101411.69
2022-09-10T14:41:08.816Z,101419.47
2022-09-10T14:43:38.337Z,101420.91
2022-09-10T14:46:09.930Z,101420.22
2022-09-10T14:49:04.504Z,101430.31
2022-09-10T14:51:30.841Z,101432.13
2022-09-10T14:53:58.588Z,101429.78
2022-09-10T14:56:36.360Z,101432.69
2022-09-10T14:59:15.286Z,101430.84
2022-09-10T15:01:43.916Z,101430.28
2022-09-10T15:04:15.775Z,101433.44
2022-09-10T15:06:43.931Z,101436.88
2022-09-10T15:09:12.557Z,101426.78
2022-09-10T15:11:53.443Z,101434.41
2022-09-10T15:14:21.124Z,101441.47
2022-09-10T15:16:50.573Z,101440.63
2022-09-10T15:19:17.336Z,101435.03
2022-09-10T15:21:43.720Z,101437.44
2022-09-10T15:24:14.188Z,101447.16
2022-09-10T15:26:41.147Z,101461.09
2022-09-10T15:29:07.716Z,101462.41
2022-09-10T15:31:35.705Z,101458.66
2022-09-10T15:34:03.081Z,101457.91
2022-09-10T15:36:29.662Z,101464.50
2022-09-10T15:38:56.053Z,101467.03
2022-09-10T15:41:22.392Z,101468.13
2022-09-10T15:43:48.721Z,101462.00
2022-09-10T15:46:16.958Z,101472.56
2022-09-10T15:48:45.003Z,101479.28
2022-09-10T15:51:17.089Z,101479.72
2022-09-10T15:53:43.888Z,101480.03
2022-09-10T15:56:11.722Z,101482.31
2022-09-10T15:58:38.990Z,101483.03
2022-09-10T16:01:08.839Z,101486.75
2022-09-10T16:03:35.177Z,101488.16
2022-09-10T16:06:03.240Z,101492.88
2022-09-10T16:08:30.302Z,101495.06
2022-09-10T16:10:56.972Z,101491.59
2022-09-10T16:13:25.852Z,101495.25
2022-09-10T16:16:03.829Z,101497.00
2022-09-10T16:18:32.295Z,101496.41
2022-09-10T16:21:06.608Z,101504.75
2022-09-10T16:23:34.475Z,101503.41
2022-09-10T16:26:00.903Z,101505.63
2022-09-10T16:28:27.401Z,101502.28
2022-09-10T16:30:53.798Z,101508.88
2022-09-10T16:33:20.242Z,101513.28
2022-09-10T16:35:47.658Z,101512.31
2022-09-10T16:38:14.216Z,101511.34
2022-09-10T16:40:40.541Z,101515.03
2022-09-10T16:43:06.928Z,101522.75
2022-09-10T16:45:33.328Z,101533.00
2022-09-10T16:48:03.961Z,101535.56
2022-09-10T16:50:30.933Z,101538.13
2022-09-10T16:52:57.253Z,101542.78
2022-09-10T16:55:23.815Z,101537.81
2022-09-10T16:57:50.166Z,101543.28
2022-09-10T17:00:16.702Z,101551.13
2022-09-10T17:02:43.229Z,101543.13
2022-09-10T17:05:10.488Z,101549.31
2022-09-10T17:07:37.250Z,101552.53
2022-09-10T17:10:03.772Z,101553.03
2022-09-10T17:12:30.190Z,101555.09
2022-09-10T17:14:56.541Z,101567.78
2022-09-10T17:17:24.210Z,101570.66
2022-09-10T17:19:50.557Z,101568.06
2022-09-10T17:22:16.972Z,101576.53
2022-09-10T17:24:43.296Z,101570.75
2022-09-10T17:27:11.346Z,101578.41
2022-09-10T17:29:38.487Z,101575.50
2022-09-10T17:32:05.605Z,101569.38
2022-09-10T17:34:33.723Z,101576.88
2022-09-10T17:37:00.078Z,101588.19
2022-09-10T17:39:28.573Z,101584.31
2022-09-10T17:41:56.364Z,101595.47
2022-09-10T17:44:24.388Z,101595.94
2022-09-10T17:46:50.862Z,101601.63
2022-09-10T17:49:17.188Z,101604.47
2022-09-10T17:51:43.779Z,101605.06
2022-09-10T17:54:10.412Z,101616.56
2022-09-10T17:56:38.043Z,101619.44
2022-09-10T17:59:05.405Z,101626.09
2022-09-10T18:01:36.138Z,101618.56
2022-09-10T18:04:04.048Z,101617.56
2022-09-10T18:06:31.963Z,101625.03
2022-09-10T18:09:00.199Z,101625.16
2022-09-10T18:11:29.417Z,101630.59
2022-09-10T18:13:57.112Z,101627.75
2022-09-10T18:16:26.640Z,101630.09
2022-09-10T18:18:55.657Z,101636.25
2022-09-10T18:21:28.228Z,101635.56
2022-09-10T18:23:56.235Z,101642.72
2022-09-10T18:26:25.159Z,101648.56
2022-09-10T18:28:53.859Z,101654.69
2022-09-10T18:31:20.329Z,101654.81
2022-09-10T18:33:46.848Z,101657.63
2022-09-10T18:36:16.307Z,101659.34
2022-09-10T18:38:43.296Z,101666.56
2022-09-10T18:41:23.456Z,101661.25
2022-09-10T18:43:51.055Z,101670.59
2022-09-10T18:46:18.956Z,101679.63
2022-09-10T18:48:47.192Z,101680.53
2022-09-10T18:51:16.056Z,101689.88
2022-09-10T18:53:45.215Z,101689.44
2022-09-10T18:56:18.000Z,101697.66
2022-09-10T18:58:55.813Z,101699.13
2022-09-10T19:01:23.849Z,101707.84
2022-09-10T19:03:51.007Z,101718.50
2022-09-10T19:06:20.669Z,101712.06
2022-09-10T19:08:53.210Z,101714.28
2022-09-10T19:11:21.652Z,101725.50
2022-09-10T19:13:57.304Z,101720.16
2022-09-10T19:16:27.514Z,101729.16
2022-09-10T19:18:57.028Z,101727.03
2022-09-10T19:21:26.238Z,101728.97
2022-09-10T19:23:59.379Z,101736.34
2022-09-10T19:26:31.647Z,101743.66
2022-09-10T19:28:59.466Z,101754.81
2022-09-10T19:31:27.580Z,101754.09
2022-09-10T19:33:58.953Z,101745.22
2022-09-10T19:36:30.742Z,101755.03
2022-09-10T19:38:59.480Z,101758.09
2022-09-10T19:41:26.091Z,101762.47
2022-09-10T19:43:53.763Z,101765.25
2022-09-10T19:46:22.385Z,101768.53
2022-09-10T19:48:48.824Z,101777.56
2022-09-10T19:51:18.991Z,101780.28
2022-09-10T19:53:46.456Z,101773.25
2022-09-10T19:56:19.734Z,101778.41
2022-09-10T19:58:49.591Z,101782.72
2022-09-10T20:01:21.279Z,101772.47
2022-09-10T20:03:48.279Z,101779.22
2022-09-10T20:06:18.257Z,101771.97
2022-09-10T20:08:46.250Z,101786.91
2022-09-10T20:11:23.894Z,101784.56
2022-09-10T20:13:55.539Z,101784.56
2022-09-10T20:16:23.724Z,101784.03
2022-09-10T20:18:50.265Z,101793.53
2022-09-10T20:21:20.157Z,101803.56
2022-09-10T20:23:49.289Z,101803.31
2022-09-10T20:26:21.304Z,101804.16
2022-09-10T20:28:59.146Z,101798.72
2022-09-10T20:31:27.844Z,101798.22
2022-09-10T20:33:59.613Z,101798.25
2022-09-10T20:36:27.520Z,101806.44
2022-09-10T20:38:55.546Z,101804.56
2022-09-10T20:41:23.363Z,101814.38
2022-09-10T20:43:53.604Z,101809.22
2022-09-10T20:46:22.489Z,101813.84
2022-09-10T20:48:50.667Z,101814.13
2022-09-10T20:51:18.735Z,101823.34
2022-09-10T20:53:45.337Z,101817.94
2022-09-10T20:56:14.175Z,101816.06
2022-09-10T20:58:41.555Z,101812.84
2022-09-10T21:01:17.255Z,101824.25
2022-09-10T21:03:43.696Z,101827.81
2022-09-10T21:06:11.671Z,101827.31
2022-09-10T21:08:39.840Z,101825.75
2022-09-10T21:11:09.843Z,101830.09
2022-09-10T21:13:37.516Z,101826.63
2022-09-10T21:16:13.592Z,101830.13
2022-09-10T21:18:41.720Z,101832.88
2022-09-10T21:21:12.780Z,101838.59
2022-09-10T21:23:43.975Z,101841.34
2022-09-10T21:26:14.861Z,101842.97
2022-09-10T21:28:41.909Z,101844.06
2022-09-10T21:31:09.720Z,101849.72
2022-09-10T21:33:36.521Z,101847.56
2022-09-10T21:36:09.732Z,101846.00
2022-09-10T21:38:36.107Z,101852.75
2022-09-10T21:41:03.674Z,101853.03
2022-09-10T21:43:34.882Z,101843.00
2022-09-10T21:46:02.419Z,101853.06
2022-09-10T21:48:32.698Z,101854.97
2022-09-10T21:51:00.422Z,101847.69
2022-09-10T21:53:27.691Z,101842.84
2022-09-10T21:55:55.805Z,101854.78
2022-09-10T21:58:23.095Z,101855.34
2022-09-10T22:00:49.734Z,101854.03
2022-09-10T22:03:16.964Z,101860.84
2022-09-10T22:05:43.350Z,101857.31
2022-09-10T22:08:09.760Z,101867.06
2022-09-10T22:10:39.904Z,101867.91
2022-09-10T22:13:06.290Z,101867.06
2022-09-10T22:15:41.445Z,101873.56
2022-09-10T22:18:09.143Z,101872.50
2022-09-10T22:20:36.395Z,101877.91
2022-09-10T22:23:04.060Z,101884.66
2022-09-10T22:25:31.105Z,101883.31
2022-09-10T22:28:00.546Z,101880.88
2022-09-10T22:30:30.288Z,101881.97
2022-09-10T22:32:57.904Z,101883.88
2022-09-10T22:35:27.001Z,101890.34
2022-09-10T22:37:55.991Z,101893.88
2022-09-10T22:40:24.377Z,101894.13
2022-09-10T22:42:51.596Z,101890.09
2022-09-10T22:45:20.908Z,101884.97
2022-09-10T22:47:50.069Z,101887.94
2022-09-10T22:50:17.141Z,101897.63
2022-09-10T22:52:46.744Z,101887.13
2022-09-10T22:55:13.431Z,101894.66
2022-09-10T22:57:41.648Z,101896.56
2022-09-10T23:00:12.820Z,101899.25
2022-09-10T23:02:39.285Z,101902.75
2022-09-10T23:05:06.529Z,101915.44
2022-09-10T23:07:33.857Z,101910.31
2022-09-10T23:10:01.187Z,101916.22
2022-09-10T23:12:27.511Z,101913.81
2022-09-10T23:14:53.900Z,101924.56
2022-09-10T23:17:22.563Z,101925.94
2022-09-10T23:19:49.114Z,101920.28
2022-09-10T23:22:15.456Z,101917.84
2022-09-10T23:24:41.789Z,101923.50
2022-09-10T23:27:08.640Z,101913.78
2022-09-10T23:29:36.395Z,101927.53
2022-09-10T23:32:02.724Z,101929.41
2022-09-10T23:34:29.062Z,101926.47
2022-09-10T23:36:55.490Z,101923.50
2022-09-10T23:39:23.983Z,101932.91
2022-09-10T23:41:53.453Z,101924.28
2022-09-10T23:44:20.332Z,101930.75
2022-09-10T23:46:46.887Z,101940.19
2022-09-10T23:49:13.529Z,101946.09
2022-09-10T23:51:40.220Z,101942.06
2022-09-10T23:54:06.643Z,101945.03
2022-09-10T23:56:33.459Z,101946.09
2022-09-10T23:58:59.998Z,101943.66
